Bigfork, Minnesota
Current Conditions -  °F | °C
As of 3:13 PM on Saturday 22 Nov 2014 (Local Time) from KFOZ Reporting Station
Clear Clear  
Wind Chill:   Ceiling: Unl
Heat Index:   Visibility: 10mi
Dew Point: -1°   Wind: 6mph
Humidity: 61%   Direction: 190°S
Pressure: 29.56"   Gusts: NA
Location:  47.74°N, 93.65°W
Report Text: KFOZ 222113Z AUTO 19005KT 10SM CLR 06/M01 A2956 RMK AO2
Loading
Personal Weather Stations






























Interactive Weather Map New forecast layout! Learn more

10-Day Weather Forecast

Advertisements
Track Severe Weather on mobile